sensor_id;sensor_type;location;lat;lon;timestamp;pressure;altitude;pressure_sealevel;temperature;humidity
69667;BME280;66534;52.370;4.832;2023-02-03T00:00:05;102409.81;;;8.47;100.00
69667;BME280;66534;52.370;4.832;2023-02-03T00:00:37;102408.06;;;8.50;100.00
69667;BME280;66534;52.370;4.832;2023-02-03T00:01:15;102404.50;;;8.52;100.00
69667;BME280;66534;52.370;4.832;2023-02-03T00:01:54;102411.56;;;8.48;100.00
69667;BME280;66534;52.370;4.832;2023-02-03T00:02:34;102410.69;;;8.46;100.00
69667;BME280;66534;52.370;4.832;2023-02-03T00:03:10;102415.09;;;8.43;100.00
69667;BME280;66534;52.370;4.832;2023-02-03T00:03:48;102409.03;;;8.41;100.00
69667;BME280;66534;52.370;4.832;2023-02-03T00:04:20;102412.44;;;8.46;100.00
69667;BME280;66534;52.370;4.832;2023-02-03T00:05:00;102395.03;;;8.43;100.00
69667;BME280;66534;52.370;4.832;2023-02-03T00:05:33;102412.47;;;8.44;100.00
69667;BME280;66534;52.370;4.832;2023-02-03T00:06:06;102418.53;;;8.46;100.00
69667;BME280;66534;52.370;4.832;2023-02-03T00:06:37;102422.91;;;8.46;100.00
69667;BME280;66534;52.370;4.832;2023-02-03T00:07:10;102425.47;;;8.51;100.00
69667;BME280;66534;52.370;4.832;2023-02-03T00:07:43;102419.41;;;8.48;100.00
69667;BME280;66534;52.370;4.832;2023-02-03T00:08:14;102418.47;;;8.53;100.00
69667;BME280;66534;52.370;4.832;2023-02-03T00:08:47;102418.50;;;8.50;100.00
69667;BME280;66534;52.370;4.832;2023-02-03T00:09:18;102422.94;;;8.44;100.00
69667;BME280;66534;52.370;4.832;2023-02-03T00:09:49;102426.38;;;8.46;100.00
69667;BME280;66534;52.370;4.832;2023-02-03T00:10:20;102422.84;;;8.51;100.00
69667;BME280;66534;52.370;4.832;2023-02-03T00:10:50;102434.19;;;8.50;100.00
69667;BME280;66534;52.370;4.832;2023-02-03T00:11:21;102426.34;;;8.50;100.00
69667;BME280;66534;52.370;4.832;2023-02-03T00:11:52;102431.56;;;8.51;100.00
69667;BME280;66534;52.370;4.832;2023-02-03T00:12:23;102430.78;;;8.44;100.00
69667;BME280;66534;52.370;4.832;2023-02-03T00:12:53;102431.63;;;8.43;100.00
69667;BME280;66534;52.370;4.832;2023-02-03T00:13:25;102426.41;;;8.45;100.00
69667;BME280;66534;52.370;4.832;2023-02-03T00:13:55;102428.13;;;8.46;100.00
69667;BME280;66534;52.370;4.832;2023-02-03T00:14:26;102425.50;;;8.49;100.00
69667;BME280;66534;52.370;4.832;2023-02-03T00:14:56;102433.34;;;8.47;100.00
69667;BME280;66534;52.370;4.832;2023-02-03T00:15:27;102436.81;;;8.48;100.00
69667;BME280;66534;52.370;4.832;2023-02-03T00:15:57;102427.31;;;8.39;100.00
69667;BME280;66534;52.370;4.832;2023-02-03T00:16:30;102441.25;;;8.44;100.00
69667;BME280;66534;52.370;4.832;2023-02-03T00:17:01;102449.03;;;8.47;100.00
69667;BME280;66534;52.370;4.832;2023-02-03T00:17:31;102427.25;;;8.47;100.00
69667;BME280;66534;52.370;4.832;2023-02-03T00:18:01;102431.63;;;8.46;100.00
69667;BME280;66534;52.370;4.832;2023-02-03T00:18:32;102428.97;;;8.50;100.00
69667;BME280;66534;52.370;4.832;2023-02-03T00:19:02;102426.34;;;8.50;100.00
69667;BME280;66534;52.370;4.832;2023-02-03T00:19:33;102420.25;;;8.47;100.00
69667;BME280;66534;52.370;4.832;2023-02-03T00:20:03;102434.19;;;8.51;100.00
69667;BME280;66534;52.370;4.832;2023-02-03T00:20:34;102439.38;;;8.53;100.00
69667;BME280;66534;52.370;4.832;2023-02-03T00:21:05;102417.59;;;8.54;100.00
69667;BME280;66534;52.370;4.832;2023-02-03T00:21:36;102428.00;;;8.58;100.00
69667;BME280;66534;52.370;4.832;2023-02-03T00:22:06;102432.38;;;8.58;100.00
69667;BME280;66534;52.370;4.832;2023-02-03T00:22:36;102423.72;;;8.51;100.00
69667;BME280;66534;52.370;4.832;2023-02-03T00:23:08;102423.69;;;8.53;100.00
69667;BME280;66534;52.370;4.832;2023-02-03T00:23:40;102435.84;;;8.58;100.00
69667;BME280;66534;52.370;4.832;2023-02-03T00:24:11;102427.19;;;8.52;100.00
69667;BME280;66534;52.370;4.832;2023-02-03T00:24:41;102437.72;;;8.48;100.00
69667;BME280;66534;52.370;4.832;2023-02-03T00:25:12;102439.44;;;8.50;100.00
69667;BME280;66534;52.370;4.832;2023-02-03T00:25:42;102446.38;;;8.51;100.00
69667;BME280;66534;52.370;4.832;2023-02-03T00:26:14;102445.44;;;8.56;100.00
69667;BME280;66534;52.370;4.832;2023-02-03T00:26:45;102444.44;;;8.71;100.00
69667;BME280;66534;52.370;4.832;2023-02-03T00:27:16;102441.03;;;8.63;100.00
69667;BME280;66534;52.370;4.832;2023-02-03T00:27:46;102454.16;;;8.58;100.00
69667;BME280;66534;52.370;4.832;2023-02-03T00:28:17;102464.59;;;8.60;100.00
69667;BME280;66534;52.370;4.832;2023-02-03T00:28:47;102462.94;;;8.54;100.00
69667;BME280;66534;52.370;4.832;2023-02-03T00:29:18;102460.31;;;8.54;100.00
69667;BME280;66534;52.370;4.832;2023-02-03T00:29:50;102462.00;;;8.57;100.00
69667;BME280;66534;52.370;4.832;2023-02-03T00:30:21;102462.91;;;8.53;100.00
69667;BME280;66534;52.370;4.832;2023-02-03T00:30:51;102461.19;;;8.52;100.00
69667;BME280;66534;52.370;4.832;2023-02-03T00:31:23;102463.81;;;8.53;100.00
69667;BME280;66534;52.370;4.832;2023-02-03T00:31:53;102470.75;;;8.53;100.00
69667;BME280;66534;52.370;4.832;2023-02-03T00:32:24;102464.69;;;8.51;100.00
69667;BME280;66534;52.370;4.832;2023-02-03T00:32:54;102466.41;;;8.52;100.00
69667;BME280;66534;52.370;4.832;2023-02-03T00:33:25;102459.44;;;8.54;100.00
69667;BME280;66534;52.370;4.832;2023-02-03T00:33:55;102461.16;;;8.55;100.00
69667;BME280;66534;52.370;4.832;2023-02-03T00:34:27;102464.66;;;8.52;100.00
69667;BME280;66534;52.370;4.832;2023-02-03T00:34:59;102457.75;;;8.50;100.00
69667;BME280;66534;52.370;4.832;2023-02-03T00:35:29;102466.41;;;8.55;100.00
69667;BME280;66534;52.370;4.832;2023-02-03T00:36:04;102469.88;;;8.55;100.00
69667;BME280;66534;52.370;4.832;2023-02-03T00:36:35;102466.44;;;8.53;100.00
69667;BME280;66534;52.370;4.832;2023-02-03T00:37:05;102470.75;;;8.53;100.00
69667;BME280;66534;52.370;4.832;2023-02-03T00:37:36;102469.03;;;8.52;100.00
69667;BME280;66534;52.370;4.832;2023-02-03T00:38:06;102469.03;;;8.55;100.00
69667;BME280;66534;52.370;4.832;2023-02-03T00:38:36;102466.41;;;8.55;100.00
69667;BME280;66534;52.370;4.832;2023-02-03T00:39:07;102464.66;;;8.55;100.00
69667;BME280;66534;52.370;4.832;2023-02-03T00:39:37;102460.28;;;8.57;100.00
69667;BME280;66534;52.370;4.832;2023-02-03T00:40:08;102449.78;;;8.59;100.00
69667;BME280;66534;52.370;4.832;2023-02-03T00:40:39;102451.53;;;8.60;100.00
69667;BME280;66534;52.370;4.832;2023-02-03T00:41:09;102436.75;;;8.57;100.00
69667;BME280;66534;52.370;4.832;2023-02-03T00:41:40;102443.69;;;8.57;100.00
69667;BME280;66534;52.370;4.832;2023-02-03T00:42:11;102442.88;;;8.53;100.00
69667;BME280;66534;52.370;4.832;2023-02-03T00:42:41;102424.59;;;8.53;100.00
69667;BME280;66534;52.370;4.832;2023-02-03T00:43:11;102435.91;;;8.54;100.00
69667;BME280;66534;52.370;4.832;2023-02-03T00:43:42;102445.44;;;8.56;100.00
69667;BME280;66534;52.370;4.832;2023-02-03T00:44:13;102436.75;;;8.57;100.00
69667;BME280;66534;52.370;4.832;2023-02-03T00:44:44;102435.00;;;8.55;100.00
69667;BME280;66534;52.370;4.832;2023-02-03T00:45:14;102439.34;;;8.59;100.00
69667;BME280;66534;52.370;4.832;2023-02-03T00:45:45;102450.72;;;8.55;100.00
69667;BME280;66534;52.370;4.832;2023-02-03T00:46:15;102447.22;;;8.54;100.00
69667;BME280;66534;52.370;4.832;2023-02-03T00:46:46;102442.88;;;8.55;100.00
69667;BME280;66534;52.370;4.832;2023-02-03T00:47:16;102448.06;;;8.58;100.00
69667;BME280;66534;52.370;4.832;2023-02-03T00:47:47;102450.63;;;8.61;100.00
69667;BME280;66534;52.370;4.832;2023-02-03T00:48:17;102448.06;;;8.58;100.00
69667;BME280;66534;52.370;4.832;2023-02-03T00:48:48;102449.78;;;8.59;100.00
69667;BME280;66534;52.370;4.832;2023-02-03T00:49:18;102434.06;;;8.62;100.00
69667;BME280;66534;52.370;4.832;2023-02-03T00:49:49;102441.03;;;8.63;100.00
69667;BME280;66534;52.370;4.832;2023-02-03T00:50:19;102419.25;;;8.61;100.00
69667;BME280;66534;52.370;4.832;2023-02-03T00:50:50;102433.19;;;8.63;100.00
69667;BME280;66534;52.370;4.832;2023-02-03T00:51:20;102425.38;;;8.61;100.00
69667;BME280;66534;52.370;4.832;2023-02-03T00:51:50;102428.84;;;8.60;100.00
69667;BME280;66534;52.370;4.832;2023-02-03T00:52:21;102426.22;;;8.60;100.00
69667;BME280;66534;52.370;4.832;2023-02-03T00:52:51;102425.38;;;8.57;100.00
69667;BME280;66534;52.370;4.832;2023-02-03T00:53:22;102419.31;;;8.55;100.00
69667;BME280;66534;52.370;4.832;2023-02-03T00:53:52;102407.97;;;8.57;100.00
69667;BME280;66534;52.370;4.832;2023-02-03T00:54:23;102407.97;;;8.56;100.00
69667;BME280;66534;52.370;4.832;2023-02-03T00:54:53;102409.69;;;8.57;100.00
69667;BME280;66534;52.370;4.832;2023-02-03T00:55:23;102413.16;;;8.60;100.00
69667;BME280;66534;52.370;4.832;2023-02-03T00:55:54;102421.00;;;8.60;100.00
69667;BME280;66534;52.370;4.832;2023-02-03T00:56:24;102421.84;;;8.61;100.00
69667;BME280;66534;52.370;4.832;2023-02-03T00:56:55;102434.06;;;8.62;100.00
69667;BME280;66534;52.370;4.832;2023-02-03T00:57:25;102427.94;;;8.63;100.00
69667;BME280;66534;52.370;4.832;2023-02-03T00:57:55;102427.06;;;8.64;100.00
69667;BME280;66534;52.370;4.832;2023-02-03T00:58:26;102419.19;;;8.67;100.00
69667;BME280;66534;52.370;4.832;2023-02-03T00:58:56;102418.31;;;8.68;100.00
69667;BME280;66534;52.370;4.832;2023-02-03T00:59:27;102425.28;;;8.67;100.00
69667;BME280;66534;52.370;4.832;2023-02-03T00:59:57;102427.91;;;8.67;100.00
69667;BME280;66534;52.370;4.832;2023-02-03T01:00:27;102431.44;;;8.63;100.00
69667;BME280;66534;52.370;4.832;2023-02-03T01:00:58;102415.72;;;8.63;100.00
69667;BME280;66534;52.370;4.832;2023-02-03T01:01:30;102436.69;;;8.60;100.00
69667;BME280;66534;52.370;4.832;2023-02-03T01:02:01;102423.56;;;8.65;100.00
69667;BME280;66534;52.370;4.832;2023-02-03T01:02:32;102434.94;;;8.61;100.00
69667;BME280;66534;52.370;4.832;2023-02-03T01:03:02;102426.22;;;8.62;100.00
69667;BME280;66534;52.370;4.832;2023-02-03T01:03:33;102438.38;;;8.64;100.00
69667;BME280;66534;52.370;4.832;2023-02-03T01:04:03;102435.81;;;8.63;100.00
69667;BME280;66534;52.370;4.832;2023-02-03T01:04:34;102428.81;;;8.63;100.00
69667;BME280;66534;52.370;4.832;2023-02-03T01:05:04;102438.38;;;8.64;100.00
69667;BME280;66534;52.370;4.832;2023-02-03T01:05:36;102431.47;;;8.62;100.00
69667;BME280;66534;52.370;4.832;2023-02-03T01:06:10;102427.94;;;8.63;100.00
69667;BME280;66534;52.370;4.832;2023-02-03T01:06:43;102427.94;;;8.66;100.00
69667;BME280;66534;52.370;4.832;2023-02-03T01:07:13;102431.41;;;8.65;100.00
69667;BME280;66534;52.370;4.832;2023-02-03T01:07:43;102421.00;;;8.60;100.00
69667;BME280;66534;52.370;4.832;2023-02-03T01:08:14;102428.84;;;8.62;100.00
69667;BME280;66534;52.370;4.832;2023-02-03T01:08:45;102414.91;;;8.61;100.00
69667;BME280;66534;52.370;4.832;2023-02-03T01:09:16;102402.69;;;8.60;100.00
69667;BME280;66534;52.370;4.832;2023-02-03T01:09:46;102416.63;;;8.62;100.00
69667;BME280;66534;52.370;4.832;2023-02-03T01:10:16;102413.09;;;8.65;100.00
69667;BME280;66534;52.370;4.832;2023-02-03T01:10:47;102412.25;;;8.63;100.00
69667;BME280;66534;52.370;4.832;2023-02-03T01:11:19;102406.25;;;8.55;100.00
69667;BME280;66534;52.370;4.832;2023-02-03T01:11:54;102409.69;;;8.57;100.00
69667;BME280;66534;52.370;4.832;2023-02-03T01:12:27;102419.31;;;8.55;100.00
69667;BME280;66534;52.370;4.832;2023-02-03T01:12:58;102412.38;;;8.54;100.00
69667;BME280;66534;52.370;4.832;2023-02-03T01:13:29;102407.88;;;8.63;100.00
69667;BME280;66534;52.370;4.832;2023-02-03T01:13:59;102403.53;;;8.65;100.00
69667;BME280;66534;52.370;4.832;2023-02-03T01:14:31;102395.72;;;8.59;100.00
69667;BME280;66534;52.370;4.832;2023-02-03T01:15:02;102400.00;;;8.65;100.00
69667;BME280;66534;52.370;4.832;2023-02-03T01:15:33;102400.00;;;8.66;100.00
69667;BME280;66534;52.370;4.832;2023-02-03T01:16:08;102398.22;;;8.70;100.00
69667;BME280;66534;52.370;4.832;2023-02-03T01:16:39;102400.88;;;8.67;100.00
69667;BME280;66534;52.370;4.832;2023-02-03T01:17:10;102405.22;;;8.69;100.00
69667;BME280;66534;52.370;4.832;2023-02-03T01:17:41;102392.09;;;8.71;100.00
69667;BME280;66534;52.370;4.832;2023-02-03T01:18:11;102394.75;;;8.69;100.00
69667;BME280;66534;52.370;4.832;2023-02-03T01:18:42;102384.28;;;8.69;100.00
69667;BME280;66534;52.370;4.832;2023-02-03T01:19:13;102387.84;;;8.62;100.00
69667;BME280;66534;52.370;4.832;2023-02-03T01:19:43;102387.78;;;8.70;100.00
69667;BME280;66534;52.370;4.832;2023-02-03T01:20:14;102401.66;;;8.73;100.00
69667;BME280;66534;52.370;4.832;2023-02-03T01:20:46;102384.22;;;8.72;100.00
69667;BME280;66534;52.370;4.832;2023-02-03T01:21:18;102389.53;;;8.65;100.00
69667;BME280;66534;52.370;4.832;2023-02-03T01:21:50;102385.19;;;8.67;100.00
69667;BME280;66534;52.370;4.832;2023-02-03T01:22:20;102392.06;;;8.72;100.00
69667;BME280;66534;52.370;4.832;2023-02-03T01:22:50;102393.81;;;8.73;100.00
69667;BME280;66534;52.370;4.832;2023-02-03T01:23:21;102396.47;;;8.69;100.00
69667;BME280;66534;52.370;4.832;2023-02-03T01:23:52;102389.53;;;8.69;100.00
69667;BME280;66534;52.370;4.832;2023-02-03T01:24:23;102384.28;;;8.69;100.00
69667;BME280;66534;52.370;4.832;2023-02-03T01:24:53;102385.13;;;8.71;100.00
69667;BME280;66534;52.370;4.832;2023-02-03T01:25:23;102383.41;;;8.70;100.00
69667;BME280;66534;52.370;4.832;2023-02-03T01:25:54;102378.13;;;8.72;100.00
69667;BME280;66534;52.370;4.832;2023-02-03T01:26:24;102385.97;;;8.72;100.00
69667;BME280;66534;52.370;4.832;2023-02-03T01:26:55;102390.28;;;8.76;100.00
69667;BME280;66534;52.370;4.832;2023-02-03T01:27:26;102392.94;;;8.73;100.00
69667;BME280;66534;52.370;4.832;2023-02-03T01:27:56;102379.91;;;8.68;100.00
69667;BME280;66534;52.370;4.832;2023-02-03T01:28:26;102395.59;;;8.71;100.00
69667;BME280;66534;52.370;4.832;2023-02-03T01:28:57;102393.00;;;8.70;100.00
69667;BME280;66534;52.370;4.832;2023-02-03T01:29:30;102382.53;;;8.70;100.00
69667;BME280;66534;52.370;4.832;2023-02-03T01:30:00;102394.72;;;8.71;100.00
69667;BME280;66534;52.370;4.832;2023-02-03T01:30:31;102381.66;;;8.71;100.00
69667;BME280;66534;52.370;4.832;2023-02-03T01:31:36;102393.84;;;8.72;100.00
69667;BME280;66534;52.370;4.832;2023-02-03T01:32:06;102387.66;;;8.79;100.00
69667;BME280;66534;52.370;4.832;2023-02-03T01:32:36;102387.72;;;8.75;100.00
69667;BME280;66534;52.370;4.832;2023-02-03T01:33:06;102385.94;;;8.75;100.00
69667;BME280;66534;52.370;4.832;2023-02-03T01:33:37;102385.94;;;8.75;100.00
69667;BME280;66534;52.370;4.832;2023-02-03T01:34:11;102372.88;;;8.75;100.00
69667;BME280;66534;52.370;4.832;2023-02-03T01:34:43;102390.31;;;8.75;100.00
69667;BME280;66534;52.370;4.832;2023-02-03T01:35:13;102385.09;;;8.75;100.00
69667;BME280;66534;52.370;4.832;2023-02-03T01:35:44;102405.09;;;8.77;100.00
69667;BME280;66534;52.370;4.832;2023-02-03T01:36:15;102385.03;;;8.78;100.00
69667;BME280;66534;52.370;4.832;2023-02-03T01:36:46;102396.41;;;8.75;100.00
69667;BME280;66534;52.370;4.832;2023-02-03T01:37:16;102390.25;;;8.78;100.00
69667;BME280;66534;52.370;4.832;2023-02-03T01:37:47;102385.00;;;8.81;100.00
69667;BME280;66534;52.370;4.832;2023-02-03T01:38:17;102391.19;;;8.73;100.00
69667;BME280;66534;52.370;4.832;2023-02-03T01:38:47;102396.38;;;8.80;100.00
69667;BME280;66534;52.370;4.832;2023-02-03T01:39:18;102391.97;;;8.83;100.00
69667;BME280;66534;52.370;4.832;2023-02-03T01:39:48;102404.19;;;8.83;100.00
69667;BME280;66534;52.370;4.832;2023-02-03T01:40:19;102403.28;;;8.84;100.00
69667;BME280;66534;52.370;4.832;2023-02-03T01:40:49;102398.00;;;8.88;100.00
69667;BME280;66534;52.370;4.832;2023-02-03T01:41:21;102398.03;;;8.85;100.00
69667;BME280;66534;52.370;4.832;2023-02-03T01:41:57;102398.94;;;8.81;100.00
69667;BME280;66534;52.370;4.832;2023-02-03T01:42:27;102387.66;;;8.78;100.00
69667;BME280;66534;52.370;4.832;2023-02-03T01:43:02;102402.47;;;8.77;100.00
69667;BME280;66534;52.370;4.832;2023-02-03T01:43:34;102389.38;;;8.80;100.00
69667;BME280;66534;52.370;4.832;2023-02-03T01:45:05;102389.31;;;8.85;100.00
69667;BME280;66534;52.370;4.832;2023-02-03T01:45:36;102395.47;;;8.81;100.00
69667;BME280;66534;52.370;4.832;2023-02-03T01:46:45;102383.28;;;8.80;100.00
69667;BME280;66534;52.370;4.832;2023-02-03T01:47:54;102389.41;;;8.79;100.00
69667;BME280;66534;52.370;4.832;2023-02-03T01:48:28;102373.66;;;8.83;100.00
69667;BME280;66534;52.370;4.832;2023-02-03T01:50:09;102391.03;;;8.87;100.00
69667;BME280;66534;52.370;4.832;2023-02-03T01:50:44;102378.84;;;8.85;100.00
69667;BME280;66534;52.370;4.832;2023-02-03T01:51:15;102366.63;;;8.87;100.00
69667;BME280;66534;52.370;4.832;2023-02-03T01:51:47;102367.56;;;8.83;100.00
69667;BME280;66534;52.370;4.832;2023-02-03T01:52:19;102363.19;;;8.83;100.00
69667;BME280;66534;52.370;4.832;2023-02-03T01:52:51;102351.84;;;8.81;100.00
69667;BME280;66534;52.370;4.832;2023-02-03T01:53:26;102370.13;;;8.84;100.00
69667;BME280;66534;52.370;4.832;2023-02-03T01:53:56;102364.00;;;8.85;100.00
69667;BME280;66534;52.370;4.832;2023-02-03T01:54:29;102368.41;;;8.83;100.00
69667;BME280;66534;52.370;4.832;2023-02-03T01:55:03;102371.03;;;8.83;100.00
69667;BME280;66534;52.370;4.832;2023-02-03T01:55:37;102374.50;;;8.84;100.00
69667;BME280;66534;52.370;4.832;2023-02-03T01:56:12;102378.00;;;8.81;100.00
69667;BME280;66534;52.370;4.832;2023-02-03T01:56:44;102369.34;;;8.79;100.00
69667;BME280;66534;52.370;4.832;2023-02-03T01:57:21;102352.78;;;8.77;100.00
69667;BME280;66534;52.370;4.832;2023-02-03T01:58:41;102375.53;;;8.69;100.00
69667;BME280;66534;52.370;4.832;2023-02-03T01:58:53;102372.84;;;8.77;100.00
69667;BME280;66534;52.370;4.832;2023-02-03T01:59:24;102358.84;;;8.81;100.00
69667;BME280;66534;52.370;4.832;2023-02-03T01:59:55;102369.25;;;8.85;100.00
69667;BME280;66534;52.370;4.832;2023-02-03T02:00:29;102357.94;;;8.83;100.00
69667;BME280;66534;52.370;4.832;2023-02-03T02:01:00;102373.66;;;8.83;100.00
69667;BME280;66534;52.370;4.832;2023-02-03T02:01:30;102364.00;;;8.85;100.00
69667;BME280;66534;52.370;4.832;2023-02-03T02:02:02;102366.66;;;8.84;100.00
69667;BME280;66534;52.370;4.832;2023-02-03T02:02:34;102359.75;;;8.78;100.00
69667;BME280;66534;52.370;4.832;2023-02-03T02:03:05;102353.63;;;8.79;100.00
69667;BME280;66534;52.370;4.832;2023-02-03T02:03:39;102365.84;;;8.77;100.00
69667;BME280;66534;52.370;4.832;2023-02-03T02:04:35;102349.22;;;8.81;100.00
69667;BME280;66534;52.370;4.832;2023-02-03T02:06:08;102354.53;;;8.77;100.00
69667;BME280;66534;52.370;4.832;2023-02-03T02:06:41;102355.31;;;8.82;100.00
69667;BME280;66534;52.370;4.832;2023-02-03T02:07:11;102357.13;;;8.80;100.00
69667;BME280;66534;52.370;4.832;2023-02-03T02:07:43;102365.00;;;8.78;100.00
69667;BME280;66534;52.370;4.832;2023-02-03T02:08:15;102366.69;;;8.82;100.00
69667;BME280;66534;52.370;4.832;2023-02-03T02:08:49;102388.41;;;8.87;100.00
69667;BME280;66534;52.370;4.832;2023-02-03T02:09:22;102357.91;;;8.86;100.00
69667;BME280;66534;52.370;4.832;2023-02-03T02:09:54;102377.13;;;8.84;100.00
69667;BME280;66534;52.370;4.832;2023-02-03T02:10:25;102381.47;;;8.85;100.00
69667;BME280;66534;52.370;4.832;2023-02-03T02:10:58;102381.50;;;8.83;100.00
69667;BME280;66534;52.370;4.832;2023-02-03T02:11:30;102373.63;;;8.86;100.00
69667;BME280;66534;52.370;4.832;2023-02-03T02:12:00;102389.25;;;8.89;100.00
69667;BME280;66534;52.370;4.832;2023-02-03T02:12:31;102388.47;;;8.81;100.00
69667;BME280;66534;52.370;4.832;2023-02-03T02:13:01;102399.00;;;8.77;100.00
69667;BME280;66534;52.370;4.832;2023-02-03T02:13:33;102394.63;;;8.77;100.00
69667;BME280;66534;52.370;4.832;2023-02-03T02:14:05;102383.31;;;8.77;100.00
69667;BME280;66534;52.370;4.832;2023-02-03T02:14:36;102386.78;;;8.77;100.00
69667;BME280;66534;52.370;4.832;2023-02-03T02:15:07;102404.25;;;8.78;100.00
69667;BME280;66534;52.370;4.832;2023-02-03T02:16:37;102380.69;;;8.78;100.00
69667;BME280;66534;52.370;4.832;2023-02-03T02:18:45;102372.72;;;8.86;100.00
69667;BME280;66534;52.370;4.832;2023-02-03T02:20:56;102377.19;;;8.79;100.00
69667;BME280;66534;52.370;4.832;2023-02-03T02:22:49;102369.34;;;8.79;100.00
69667;BME280;66534;52.370;4.832;2023-02-03T02:27:01;102395.56;;;8.75;100.00
69667;BME280;66534;52.370;4.832;2023-02-03T02:33:22;102378.94;;;8.77;100.00
69667;BME280;66534;52.370;4.832;2023-02-03T02:36:14;102378.00;;;8.83;100.00
69667;BME280;66534;52.370;4.832;2023-02-03T02:37:12;102355.34;;;8.80;100.00
69667;BME280;66534;52.370;4.832;2023-02-03T02:37:48;102368.53;;;8.74;100.00
69667;BME280;66534;52.370;4.832;2023-02-03T02:39:12;102370.25;;;8.73;100.00
69667;BME280;66534;52.370;4.832;2023-02-03T02:40:36;102374.66;;;8.71;100.00
69667;BME280;66534;52.370;4.832;2023-02-03T02:41:28;102371.97;;;8.76;100.00
69667;BME280;66534;52.370;4.832;2023-02-03T02:42:15;102382.47;;;8.75;100.00
69667;BME280;66534;52.370;4.832;2023-02-03T02:43:38;102379.91;;;8.70;100.00
69667;BME280;66534;52.370;4.832;2023-02-03T02:45:04;102367.63;;;8.75;100.00
69667;BME280;66534;52.370;4.832;2023-02-03T02:46:18;102371.16;;;8.74;100.00
69667;BME280;66534;52.370;4.832;2023-02-03T02:46:57;102356.25;;;8.79;100.00
69667;BME280;66534;52.370;4.832;2023-02-03T02:47:33;102366.84;;;8.70;100.00
69667;BME280;66534;52.370;4.832;2023-02-03T02:48:06;102365.91;;;8.72;100.00
69667;BME280;66534;52.370;4.832;2023-02-03T02:48:46;102345.94;;;8.67;100.00
69667;BME280;66534;52.370;4.832;2023-02-03T02:49:25;102351.16;;;8.70;100.00
69667;BME280;66534;52.370;4.832;2023-02-03T02:50:05;102340.69;;;8.68;100.00
69667;BME280;66534;52.370;4.832;2023-02-03T02:50:43;102352.00;;;8.70;100.00
69667;BME280;66534;52.370;4.832;2023-02-03T02:51:15;102353.75;;;8.70;100.00
69667;BME280;66534;52.370;4.832;2023-02-03T02:51:46;102357.97;;;8.80;100.00
69667;BME280;66534;52.370;4.832;2023-02-03T02:52:17;102357.94;;;8.83;100.00
69667;BME280;66534;52.370;4.832;2023-02-03T02:52:51;102358.91;;;8.76;100.00
69667;BME280;66534;52.370;4.832;2023-02-03T02:53:23;102349.25;;;8.80;100.00
69667;BME280;66534;52.370;4.832;2023-02-03T02:53:59;102369.41;;;8.73;100.00
69667;BME280;66534;52.370;4.832;2023-02-03T02:54:33;102337.97;;;8.76;100.00
69667;BME280;66534;52.370;4.832;2023-02-03T02:55:17;102343.19;;;8.76;100.00
69667;BME280;66534;52.370;4.832;2023-02-03T02:55:53;102358.06;;;8.74;100.00
69667;BME280;66534;52.370;4.832;2023-02-03T02:56:26;102365.91;;;8.72;100.00
69667;BME280;66534;52.370;4.832;2023-02-03T02:57:00;102357.16;;;8.77;100.00
69667;BME280;66534;52.370;4.832;2023-02-03T02:57:33;102357.13;;;8.80;100.00
69667;BME280;66534;52.370;4.832;2023-02-03T02:58:08;102359.75;;;8.78;100.00
69667;BME280;66534;52.370;4.832;2023-02-03T02:58:42;102363.28;;;8.76;100.00
69667;BME280;66534;52.370;4.832;2023-02-03T02:59:17;102362.41;;;8.75;100.00
69667;BME280;66534;52.370;4.832;2023-02-03T02:59:48;102367.56;;;8.80;100.00
69667;BME280;66534;52.370;4.832;2023-02-03T03:00:18;102373.69;;;8.77;100.00
69667;BME280;66534;52.370;4.832;2023-02-03T03:00:49;102374.56;;;8.78;100.00
69667;BME280;66534;52.370;4.832;2023-02-03T03:01:20;102368.56;;;8.71;100.00
69667;BME280;66534;52.370;4.832;2023-02-03T03:01:51;102373.81;;;8.69;100.00
69667;BME280;66534;52.370;4.832;2023-02-03T03:02:21;102347.59;;;8.72;100.00
69667;BME280;66534;52.370;4.832;2023-02-03T03:03:11;102368.56;;;8.71;100.00
69667;BME280;66534;52.370;4.832;2023-02-03T03:03:49;102373.75;;;8.72;100.00
69667;BME280;66534;52.370;4.832;2023-02-03T03:04:23;102372.00;;;8.75;100.00
69667;BME280;66534;52.370;4.832;2023-02-03T03:04:56;102389.44;;;8.76;100.00
69667;BME280;66534;52.370;4.832;2023-02-03T03:05:26;102375.47;;;8.77;100.00
69667;BME280;66534;52.370;4.832;2023-02-03T03:06:01;102369.47;;;8.70;100.00
69667;BME280;66534;52.370;4.832;2023-02-03T03:06:45;102372.06;;;8.68;100.00
69667;BME280;66534;52.370;4.832;2023-02-03T03:07:21;102358.06;;;8.72;100.00
69667;BME280;66534;52.370;4.832;2023-02-03T03:07:55;102372.06;;;8.68;100.00
69667;BME280;66534;52.370;4.832;2023-02-03T03:08:36;102360.72;;;8.71;100.00
69667;BME280;66534;52.370;4.832;2023-02-03T03:10:20;102376.38;;;8.72;100.00
69667;BME280;66534;52.370;4.832;2023-02-03T03:10:56;102377.31;;;8.68;100.00
69667;BME280;66534;52.370;4.832;2023-02-03T03:11:30;102370.38;;;8.66;100.00
69667;BME280;66534;52.370;4.832;2023-02-03T03:12:14;102376.38;;;8.72;100.00
69667;BME280;66534;52.370;4.832;2023-02-03T03:12:50;102377.25;;;8.73;100.00
69667;BME280;66534;52.370;4.832;2023-02-03T03:13:25;102378.13;;;8.72;100.00
69667;BME280;66534;52.370;4.832;2023-02-03T03:14:00;102371.16;;;8.72;100.00
69667;BME280;66534;52.370;4.832;2023-02-03T03:14:34;102378.19;;;8.67;100.00
69667;BME280;66534;52.370;4.832;2023-02-03T03:15:12;102377.38;;;8.65;100.00
69667;BME280;66534;52.370;4.832;2023-02-03T03:15:47;102390.38;;;8.68;100.00
69667;BME280;66534;52.370;4.832;2023-02-03T03:16:23;102394.75;;;8.69;100.00
69667;BME280;66534;52.370;4.832;2023-02-03T03:17:05;102395.63;;;8.70;100.00